Change the Weather History Date:

Tuesday, November 5, 2013

  Actual Average Record
Temperature  
Mean Temperature 58 °F -  
Max Temperature 66 °F 56 °F 78 °F (1978)
Min Temperature 51 °F 36 °F 16 °F (1991)
Degree Days  
Heating Degree Days 6    
Growing Degree Days 8 (Base 50)    
Moisture  
Dew Point 49 °F    
Average Humidity 75    
Maximum Humidity 95    
Minimum Humidity 57    
Precipitation  
Precipitation 0.00 in - - ()
Sea Level Pressure  
Sea Level Pressure 30.21 in    
Wind  
Wind Speed 6 mph (SSE)    
Max Wind Speed 15 mph    
Max Gust Speed 22 mph    
Visibility 10 miles    
Events Rain    
Averages and records for this station are not official NWS values.
T = Trace of Precipitation, MM = Missing Value Source: NWS Daily Summary

Daily Weather History Graph

Daily Weather History Graph

Search for Another Location

Airport or City:

Trip Planner

Search our weather history database for the weather conditions in past years. The results will help you decide how hot, cold, wet, or windy it might be!

Date:

Astronomy

Nov. 05, 2013 Rise Set
Actual Time 6:27 AM CST 4:51 PM CST
Civil Twilight 5:59 AM CST 5:18 PM CST
Nautical Twilight 5:27 AM CST 5:50 PM CST
Astronomical Twilight 4:56 AM CST 6:21 PM CST
Moon 8:41 AM CST (11/5) 6:53 PM CST (11/5)
Length of Visible Light 11h 19m
Length of Day
10h 23m
Waxing Crescent, 7% of the Moon is Illuminated
Nov 5
Waxing Crescent
Nov 9
First Quarter
Nov 17
Full
Nov 25
Last Quarter
Dec 2
New

Hourly Weather History & Observations

Time (CST) Temp. Dew Point Humidity Pressure Visibility Wind Dir Wind Speed Gust Speed Precip Events Conditions
12:15 AM 54.1 °F 47.3 °F 78% 30.28 in 10.0 mi South 4.6 mph - N/A   Overcast
12:35 AM 54.3 °F 47.8 °F 79% 30.29 in 10.0 mi South 6.9 mph - N/A Rain Rain
12:55 AM 54.0 °F 48.4 °F 81% 30.28 in 10.0 mi South 5.8 mph - N/A Rain Light Rain
1:15 AM 53.1 °F 49.1 °F 86% 30.29 in 10.0 mi South 4.6 mph - N/A Rain Light Rain
1:35 AM 52.7 °F 49.3 °F 88% 30.29 in 10.0 mi South 5.8 mph - N/A Rain Light Rain
1:55 AM 52.3 °F 50.0 °F 92% 30.30 in 10.0 mi South 4.6 mph - N/A Rain Rain
2:15 AM 52.3 °F 50.0 °F 92% 30.28 in 10.0 mi SSE 4.6 mph - N/A   Overcast
2:35 AM 52.2 °F 49.8 °F 92% 30.27 in 10.0 mi SSE 3.5 mph - N/A Rain Light Rain
2:55 AM 52.2 °F 50.0 °F 92% 30.27 in 10.0 mi Calm Calm - N/A   Overcast
3:15 AM 51.8 °F 50.4 °F 95% 30.26 in 7.0 mi Calm Calm - N/A Rain Rain
3:35 AM 51.8 °F 50.5 °F 95% 30.28 in 10.0 mi SE 3.5 mph - N/A   Overcast
3:55 AM 51.8 °F 50.5 °F 95% 30.27 in 10.0 mi SE 3.5 mph - N/A   Overcast
4:15 AM 52.0 °F 50.5 °F 95% 30.27 in 10.0 mi SE 4.6 mph - N/A   Overcast
4:35 AM 51.8 °F 50.4 °F 95% 30.27 in 10.0 mi ESE 4.6 mph - N/A   Overcast
4:55 AM 51.8 °F 50.4 °F 95% 30.27 in 10.0 mi SE 4.6 mph - N/A   Overcast
5:15 AM 51.8 °F 50.4 °F 95% 30.28 in 10.0 mi Calm Calm - N/A Rain Light Rain
5:35 AM 51.8 °F 50.4 °F 95% 30.28 in 7.0 mi SE 3.5 mph - N/A   Overcast
5:55 AM 51.8 °F 50.4 °F 95% 30.28 in 10.0 mi ESE 3.5 mph - N/A   Overcast
6:15 AM 51.8 °F 50.0 °F 94% 30.28 in 10.0 mi ESE 5.8 mph - N/A   Overcast
6:35 AM 51.6 °F 50.0 °F 94% 30.28 in 10.0 mi ESE 4.6 mph - N/A   Overcast
6:55 AM 51.4 °F 50.0 °F 95% 30.29 in 10.0 mi ESE 3.5 mph - N/A   Overcast
7:15 AM 51.4 °F 50.0 °F 95% 30.30 in 7.0 mi SE 3.5 mph - N/A Rain Light Rain
7:35 AM 51.4 °F 49.8 °F 94% 30.31 in 7.0 mi SE 3.5 mph - N/A Rain Light Rain
7:55 AM 51.4 °F 49.6 °F 94% 30.31 in 10.0 mi SE 4.6 mph - N/A Rain Light Rain
8:15 AM 51.8 °F 49.3 °F 91% 30.32 in 10.0 mi SE 4.6 mph - N/A   Overcast
8:35 AM 52.3 °F 49.1 °F 89% 30.32 in 10.0 mi SSE 4.6 mph - N/A Rain Light Rain
8:55 AM 52.7 °F 48.7 °F 86% 30.32 in 10.0 mi SSE 4.6 mph - N/A   Overcast
9:15 AM 53.2 °F 48.7 °F 85% 30.32 in 10.0 mi SSE 4.6 mph - N/A Rain Light Rain
9:35 AM 53.8 °F 48.4 °F 82% 30.31 in 10.0 mi SSE 4.6 mph - N/A   Mostly Cloudy
9:55 AM 54.5 °F 48.2 °F 79% 30.31 in 10.0 mi SSE 6.9 mph - N/A   Scattered Clouds
10:15 AM 55.4 °F 47.7 °F 75% 30.30 in 10.0 mi SSE 6.9 mph - N/A   Scattered Clouds
10:35 AM 55.9 °F 47.7 °F 74% 30.29 in 10.0 mi SSE 8.1 mph - N/A   Mostly Cloudy
10:55 AM 56.5 °F 47.1 °F 71% 30.29 in 10.0 mi SSE 5.8 mph - N/A   Mostly Cloudy
11:15 AM 57.9 °F 47.8 °F 69% 30.28 in 10.0 mi South 9.2 mph - N/A   Mostly Cloudy
11:35 AM 58.6 °F 47.8 °F 67% 30.26 in 10.0 mi SSE 10.4 mph - N/A   Overcast
11:55 AM 60.3 °F 48.9 °F 66% 30.26 in 10.0 mi South 9.2 mph - N/A   Overcast
12:15 PM 61.9 °F 49.3 °F 63% 30.25 in 10.0 mi South 15.0 mph - N/A   Mostly Cloudy
12:35 PM 62.2 °F 48.7 °F 61% 30.23 in 10.0 mi SSE 10.4 mph - N/A   Scattered Clouds
12:55 PM 63.7 °F 49.5 °F 60% 30.22 in 10.0 mi South 10.4 mph 17.3 mph N/A   Scattered Clouds
1:15 PM 64.9 °F 50.4 °F 59% 30.22 in 10.0 mi South 9.2 mph - N/A   Mostly Cloudy
1:35 PM 64.0 °F 50.0 °F 60% 30.20 in 10.0 mi SSE 6.9 mph - N/A   Mostly Cloudy
1:55 PM 64.8 °F 50.0 °F 59% 30.19 in 10.0 mi South 10.4 mph - N/A   Mostly Cloudy
2:15 PM 66.0 °F 50.7 °F 58% 30.18 in 10.0 mi South 10.4 mph 16.1 mph N/A   Overcast
2:35 PM 65.8 °F 50.9 °F 58% 30.17 in 10.0 mi SSE 9.2 mph - N/A   Mostly Cloudy
2:55 PM 66.2 °F 50.5 °F 57% 30.17 in 10.0 mi SE 8.1 mph - N/A   Overcast
3:15 PM 65.8 °F 50.2 °F 57% 30.17 in 10.0 mi SSE 8.1 mph - N/A   Overcast
3:35 PM 65.3 °F 50.2 °F 58% 30.16 in 10.0 mi SSE 8.1 mph - N/A   Overcast
3:55 PM 65.1 °F 50.0 °F 58% 30.16 in 10.0 mi SE 8.1 mph - N/A   Overcast
4:15 PM 64.4 °F 49.8 °F 59% 30.15 in 10.0 mi SE 8.1 mph - N/A   Overcast
4:35 PM 63.9 °F 49.5 °F 59% 30.15 in 10.0 mi SSE 8.1 mph - N/A   Overcast
4:55 PM 63.7 °F 49.3 °F 59% 30.15 in 10.0 mi SSE 9.2 mph - N/A   Overcast
5:15 PM 63.5 °F 49.3 °F 60% 30.15 in 10.0 mi SSE 8.1 mph - N/A   Overcast
5:35 PM 63.0 °F 49.1 °F 61% 30.15 in 10.0 mi SSE 8.1 mph - N/A   Overcast
5:55 PM 62.6 °F 48.7 °F 60% 30.15 in 10.0 mi SSE 8.1 mph - N/A   Overcast
6:15 PM 61.9 °F 48.6 °F 62% 30.15 in 10.0 mi SSE 8.1 mph - N/A   Overcast
6:35 PM 61.3 °F 48.4 °F 62% 30.14 in 10.0 mi SE 10.4 mph - N/A Rain Rain
6:55 PM 59.9 °F 49.5 °F 68% 30.14 in 10.0 mi SE 4.6 mph - N/A Rain Rain
7:15 PM 58.5 °F 50.2 °F 74% 30.13 in 10.0 mi SE 5.8 mph - N/A Rain Light Rain
7:35 PM 59.5 °F 49.1 °F 68% 30.13 in 10.0 mi SSE 5.8 mph - N/A Rain Light Rain
7:55 PM 59.9 °F 49.1 °F 67% 30.11 in 10.0 mi SE 6.9 mph - N/A   Overcast
8:15 PM 60.3 °F 48.6 °F 65% 30.10 in 10.0 mi SE 8.1 mph - N/A   Overcast
8:35 PM 60.4 °F 48.6 °F 65% 30.09 in 10.0 mi SE 9.2 mph 17.3 mph N/A   Overcast
8:55 PM 60.1 °F 48.4 °F 65% 30.08 in 10.0 mi SSE 11.5 mph 17.3 mph N/A   Scattered Clouds
9:15 PM 59.9 °F 48.4 °F 66% 30.08 in 10.0 mi SSE 6.9 mph - N/A   Scattered Clouds
9:35 PM 60.4 °F 48.4 °F 64% 30.09 in 10.0 mi SSE 8.1 mph - N/A   Scattered Clouds
9:55 PM 61.0 °F 48.6 °F 64% 30.10 in 10.0 mi South 8.1 mph - N/A   Scattered Clouds
10:15 PM 61.7 °F 49.3 °F 64% 30.09 in 10.0 mi South 12.7 mph 17.3 mph N/A   Mostly Cloudy
10:35 PM 62.2 °F 49.8 °F 64% 30.09 in 10.0 mi South 11.5 mph 18.4 mph N/A   Mostly Cloudy
10:55 PM 62.6 °F 50.4 °F 64% 30.09 in 10.0 mi South 15.0 mph 21.9 mph N/A   Overcast
11:15 PM 62.6 °F 50.5 °F 65% 30.08 in 10.0 mi South 13.8 mph 19.6 mph N/A   Overcast
11:35 PM 62.6 °F 50.9 °F 66% 30.08 in 10.0 mi South 12.7 mph 19.6 mph N/A   Overcast
11:55 PM 61.5 °F 52.0 °F 71% 30.09 in 10.0 mi South 13.8 mph 21.9 mph N/A Rain Light Rain